Disclaimer

Please do not use the information listed here in-flight or in-navigation, as they are not provided to us by the airports but are provided by volunteers, so they might be outdated.

Search


Regions


Airport information page

Radio informations:
Tower (TWR) - 42.4 MHz
HANNOVER DIR - 131.325 MHz
RADAR - 122.425 MHz

Airport informations:
Latitude: 52° 55' 09.86" N
Longitude: 010° 11' 51.10" E
Elevation: 245 feet - 75 meters
Operating hours: Remarks
Operating agency: Military
Timezone: UTC+1(+2DT) - Last Sunday in March to last Sunday in October
Fuel: Jet A1+, Jet A1 with icing inhibitor.

Runway information:
06/24 - 1312 x 148 feet< - >400 x 45 meters
09/27 - 8005 x 95 feet< - >2440 x 29 meters
09L/27R - 3281 x 164 feet< - >1000 x 50 meters

Recent METARs:
ETHS 172020Z 08007KT 9999 M01/M04 Q1036 BLU+
ETHS 172020Z 08007KT 9999 M01/M04 Q1036 BLU+
ETHS 172120Z 10003KT 9999 M00/M04 Q1036 BLU+

Airport on the map: